Time;durP1;ratioP1;P1;durP2;ratioP2;P2;SDS_P1;SDS_P2;PMS_P1;PMS_P2;Temp;Humidity;BMP_temperature;BMP_pressure;BME280_temperature;BME280_humidity;BME280_pressure;Samples;Min_cycle;Max_cycle;Signal;HPM_P1;HPM_P2
2022/05/02 00:00:44;;;;;;;9.27;5.28;;;;;;;14.84;52.56;95348.44;5034652;28;20037;-81
2022/05/02 00:03:10;;;;;;;13.55;5.55;;;;;;;14.56;53.39;95352.97;5034214;28;20037;-81
2022/05/02 00:05:37;;;;;;;12.98;5.72;;;;;;;13.93;54.10;95253.19;5033853;28;20094;-82
2022/05/02 00:08:03;;;;;;;9.32;5.20;;;;;;;13.63;53.41;95196.63;5034247;28;20041;-81
2022/05/02 00:10:29;;;;;;;11.63;4.93;;;;;;;14.18;52.97;95236.75;5015735;28;20060;-81
2022/05/02 00:12:55;;;;;;;9.32;5.03;;;;;;;14.94;52.96;95340.25;5033984;28;20035;-82
2022/05/02 00:15:21;;;;;;;7.57;4.93;;;;;;;14.58;52.64;95296.59;5034099;28;20032;-82
2022/05/02 00:17:56;;;;;;;10.25;5.60;;;;;;;14.16;52.69;95230.91;5033596;28;20064;-81
2022/05/02 00:20:26;;;;;;;10.10;4.82;;;;;;;14.93;52.53;95338.66;5033452;28;20125;-81
2022/05/02 00:22:51;;;;;;;7.07;4.10;;;;;;;14.61;52.87;95326.16;5014916;28;20044;-81
2022/05/02 00:25:17;;;;;;;11.30;4.72;;;;;;;14.08;52.68;95223.59;5034094;28;20041;-81
2022/05/02 00:27:43;;;;;;;5.25;3.90;;;;;;;14.46;53.06;95273.06;5015345;28;20029;-82
2022/05/02 00:30:11;;;;;;;5.90;4.18;;;;;;;14.47;52.81;95295.22;5033495;28;20037;-82
2022/05/02 00:32:37;;;;;;;7.00;4.43;;;;;;;13.48;53.00;95140.94;5014860;28;20523;-81
2022/05/02 00:35:04;;;;;;;5.93;4.32;;;;;;;14.16;53.11;95262.91;5033576;28;20035;-81
2022/05/02 00:37:29;;;;;;;8.15;4.68;;;;;;;14.23;53.03;95244.66;5015623;28;20033;-81
2022/05/02 00:39:56;;;;;;;7.93;4.43;;;;;;;13.73;53.70;95225.75;5015341;28;20091;-81
2022/05/02 00:42:21;;;;;;;8.52;3.92;;;;;;;13.03;53.61;95105.94;5033711;28;20067;-81
2022/05/02 00:44:47;;;;;;;7.47;4.75;;;;;;;13.72;54.56;95250.06;5033256;28;20541;-81
2022/05/02 00:47:15;;;;;;;6.32;3.88;;;;;;;14.53;53.80;95326.06;5015732;28;20025;-81
2022/05/02 00:49:42;;;;;;;6.40;4.13;;;;;;;14.14;53.46;95273.88;5034772;28;20029;-81
2022/05/02 00:52:07;;;;;;;8.57;4.57;;;;;;;14.22;54.33;95307.88;5019230;28;20043;-81
2022/05/02 00:54:35;;;;;;;9.77;4.20;;;;;;;14.30;54.30;95327.75;5018617;28;20029;-81
2022/05/02 00:57:02;;;;;;;7.95;4.43;;;;;;;14.46;53.76;95318.44;5018401;28;20403;-81
2022/05/02 00:59:28;;;;;;;12.90;4.45;;;;;;;13.41;53.03;95143.19;5037045;28;20036;-81
2022/05/02 01:01:53;;;;;;;6.68;4.90;;;;;;;13.62;53.57;95216.38;5036237;28;20128;-81
2022/05/02 01:04:19;;;;;;;12.55;4.88;;;;;;;14.25;53.61;95277.97;5017946;28;20036;-81
2022/05/02 01:09:32;;;;;;;5.78;3.78;;;;;;;14.05;53.22;95238.28;5036411;28;20335;-81
2022/05/02 01:11:57;;;;;;;10.18;4.72;;;;;;;13.88;52.67;95196.19;5018349;28;20577;-81
2022/05/02 01:14:23;;;;;;;6.47;4.63;;;;;;;13.53;53.61;95154.94;5018591;28;20178;-81
2022/05/02 01:16:49;;;;;;;12.00;4.10;;;;;;;14.46;53.50;95307.75;5036686;28;20239;-81
2022/05/02 01:19:14;;;;;;;7.70;4.07;;;;;;;14.15;53.37;95253.34;5036423;28;20039;-81
2022/05/02 01:21:43;;;;;;;11.00;4.40;;;;;;;13.65;53.63;95188.34;5018866;28;20029;-81
2022/05/02 01:24:09;;;;;;;5.85;3.50;;;;;;;13.58;53.30;95162.06;5036232;28;20144;-81
2022/05/02 01:26:34;;;;;;;7.78;3.40;;;;;;;14.03;53.13;95213.03;5018425;28;20113;-81
2022/05/02 01:29:01;;;;;;;6.63;3.65;;;;;;;14.07;54.02;95260.13;5036450;28;20468;-81
2022/05/02 01:31:27;;;;;;;7.20;3.40;;;;;;;13.47;54.00;95188.09;5018257;28;20029;-80
2022/05/02 01:33:53;;;;;;;10.63;3.90;;;;;;;14.36;53.51;95288.44;5018496;28;20057;-81
2022/05/02 01:36:20;;;;;;;5.30;3.97;;;;;;;13.96;53.37;95210.72;5036977;28;20117;-81
2022/05/02 01:38:46;;;;;;;10.52;3.63;;;;;;;14.51;53.18;95288.19;5018324;28;20032;-81
2022/05/02 01:41:12;;;;;;;6.07;3.53;;;;;;;14.59;53.20;95284.84;5018203;28;20451;-81
2022/05/02 01:43:38;;;;;;;5.97;3.47;;;;;;;13.09;53.79;95104.78;5036337;28;20128;-81
2022/05/02 01:46:06;;;;;;;8.68;3.70;;;;;;;14.20;53.24;95227.34;5017787;28;20429;-81
2022/05/02 01:48:32;;;;;;;7.47;3.50;;;;;;;14.20;53.56;95250.56;5017753;28;20037;-81
2022/05/02 01:50:58;;;;;;;9.35;4.28;;;;;;;14.15;52.94;95203.44;5017841;28;20482;-81
2022/05/02 01:53:25;;;;;;;6.53;4.07;;;;;;;14.38;52.73;95238.25;5018197;28;20063;-81
2022/05/02 01:55:50;;;;;;;4.32;3.90;;;;;;;13.93;53.55;95213.97;5017571;28;20118;-81
2022/05/02 01:58:16;;;;;;;9.00;4.10;;;;;;;14.37;53.51;95266.81;5017389;28;20079;-81
2022/05/02 02:00:42;;;;;;;10.68;4.13;;;;;;;13.58;53.57;95148.72;5017799;28;20123;-81
2022/05/02 02:03:07;;;;;;;6.18;4.07;;;;;;;13.81;54.14;95234.97;5035826;28;20037;-81
2022/05/02 02:05:48;;;;;;;9.27;4.60;;;;;;;13.67;54.35;95196.81;5017727;28;20090;-81
2022/05/02 02:08:15;;;;;;;7.10;4.50;;;;;;;14.22;54.11;95273.19;5036387;28;20474;-81
2022/05/02 02:10:41;;;;;;;5.28;4.10;;;;;;;13.13;54.18;95097.81;5018470;28;20068;-81
2022/05/02 02:13:07;;;;;;;6.72;4.50;;;;;;;13.95;54.25;95230.50;5017589;28;20529;-81
2022/05/02 02:15:32;;;;;;;8.00;5.00;;;;;;;13.30;54.82;95160.41;5035310;28;20036;-81
2022/05/02 02:17:58;;;;;;;9.70;4.72;;;;;;;12.98;56.10;95183.19;5035675;28;20050;-81
2022/05/02 02:20:23;;;;;;;7.03;4.60;;;;;;;13.20;55.94;95177.31;5017144;28;20157;-81
2022/05/02 02:22:50;;;;;;;6.13;4.53;;;;;;;13.23;55.17;95136.81;5035687;28;20056;-81
2022/05/02 02:25:15;;;;;;;5.72;4.10;;;;;;;13.49;54.69;95153.19;5017584;28;20511;-82
2022/05/02 02:27:41;;;;;;;6.75;4.63;;;;;;;13.66;54.59;95164.06;5035332;28;20037;-81
2022/05/02 02:30:07;;;;;;;6.55;4.68;;;;;;;13.55;54.72;95157.34;5017488;28;20071;-81
2022/05/02 02:32:32;;;;;;;8.98;4.30;;;;;;;14.12;54.62;95246.69;5017712;28;20139;-81
2022/05/02 02:34:58;;;;;;;9.73;5.10;;;;;;;13.17;55.94;95159.28;5035139;28;20456;-81
2022/05/02 02:37:23;;;;;;;7.25;5.35;;;;;;;12.96;54.96;95076.25;5017250;28;20609;-81
2022/05/02 02:39:49;;;;;;;7.55;4.82;;;;;;;13.48;54.69;95131.06;5035620;28;20116;-81
2022/05/02 02:42:15;;;;;;;7.15;4.80;;;;;;;14.16;54.49;95230.91;5016624;28;20029;-81
2022/05/02 02:44:40;;;;;;;5.97;4.95;;;;;;;14.19;54.08;95220.44;5035581;28;20461;-81
2022/05/02 02:47:06;;;;;;;11.13;5.38;;;;;;;14.26;54.16;95225.41;5035350;28;20040;-81
2022/05/02 02:49:31;;;;;;;8.13;4.88;;;;;;;12.99;54.96;95065.00;5016828;28;20329;-81
2022/05/02 02:51:56;;;;;;;8.73;5.43;;;;;;;13.41;54.42;95128.00;5035634;28;20518;-81
2022/05/02 02:54:22;;;;;;;6.40;5.10;;;;;;;13.43;55.89;95157.78;5035225;28;20456;-81
2022/05/02 02:56:48;;;;;;;7.90;4.60;;;;;;;12.91;54.88;95067.53;5017116;28;20179;-81
2022/05/02 02:59:13;;;;;;;8.50;4.25;;;;;;;13.49;56.56;95228.56;5016868;28;20033;-81
2022/05/02 03:01:40;;;;;;;8.00;4.72;;;;;;;12.40;57.11;95064.81;5016736;28;20044;-81
2022/05/02 03:06:53;;;;;;;8.80;4.53;;;;;;;13.43;55.82;95171.09;5035143;28;20264;-81
2022/05/02 03:09:19;;;;;;;10.73;5.10;;;;;;;12.81;55.56;95089.00;5035527;28;20033;-81
2022/05/02 03:11:45;;;;;;;8.82;4.57;;;;;;;13.62;55.93;95216.38;5035356;28;20565;-81
2022/05/02 03:14:11;;;;;;;8.30;5.07;;;;;;;12.50;56.24;95078.00;5035213;28;20024;-81
2022/05/02 03:16:38;;;;;;;6.57;4.75;;;;;;;13.00;55.59;95116.38;5016701;28;20506;-81
2022/05/02 03:19:03;;;;;;;9.93;4.80;;;;;;;13.68;55.85;95209.88;5016252;28;20032;-81
2022/05/02 03:21:28;;;;;;;10.45;4.97;;;;;;;13.36;56.64;95218.63;5034860;28;20272;-81
2022/05/02 03:23:54;;;;;;;8.05;5.15;;;;;;;13.43;56.15;95213.72;5034461;28;20675;-81
2022/05/02 03:26:20;;;;;;;10.27;5.10;;;;;;;13.29;56.24;95194.22;5034696;28;20428;-81
2022/05/02 03:28:45;;;;;;;8.95;5.70;;;;;;;12.86;56.82;95147.47;5016776;28;20106;-81
2022/05/02 03:31:11;;;;;;;8.88;4.65;;;;;;;13.27;56.79;95214.25;5034715;28;20136;-81
2022/05/02 03:33:36;;;;;;;11.07;4.82;;;;;;;11.50;56.72;94946.13;5034448;28;20033;-81
2022/05/02 03:36:02;;;;;;;15.45;5.25;;;;;;;12.77;56.85;95157.94;5034246;28;20041;-81
2022/05/02 03:38:27;;;;;;;6.70;4.70;;;;;;;12.48;56.76;95122.69;5034311;28;20894;-81
2022/05/02 03:40:52;;;;;;;13.63;5.32;;;;;;;12.62;56.30;95126.22;5015825;28;20029;-81
2022/05/02 03:43:18;;;;;;;13.65;6.40;;;;;;;12.72;56.36;95147.38;5015992;28;20059;-82
2022/05/02 03:45:43;;;;;;;8.75;5.53;;;;;;;12.38;56.41;95100.47;5034635;28;20823;-81
2022/05/02 03:48:09;;;;;;;11.27;5.85;;;;;;;13.35;56.04;95230.34;5034421;28;20575;-81
2022/05/02 03:50:34;;;;;;;10.00;5.38;;;;;;;12.86;55.77;95134.94;5034513;28;20111;-81
2022/05/02 03:53:00;;;;;;;14.88;5.88;;;;;;;12.27;56.23;95080.44;5034817;28;20085;-81
2022/05/02 03:55:26;;;;;;;15.63;5.68;;;;;;;12.55;56.90;95131.91;5033703;28;20033;-81
2022/05/02 03:57:52;;;;;;;11.27;5.20;;;;;;;12.72;56.47;95155.38;5016148;28;20033;-81
2022/05/02 04:00:18;;;;;;;17.30;5.53;;;;;;;12.59;56.65;95143.53;5015808;28;20278;-81
2022/05/02 04:02:43;;;;;;;13.80;5.30;;;;;;;13.09;56.56;95223.78;5038735;28;20021;-81
2022/05/02 04:05:09;;;;;;;13.88;5.50;;;;;;;12.57;56.96;95160.88;5036748;28;20037;-82
2022/05/02 04:07:35;;;;;;;14.68;5.95;;;;;;;12.12;58.23;95176.31;5015483;28;20029;-81
2022/05/02 04:10:01;;;;;;;16.90;5.38;;;;;;;12.47;57.69;95183.09;5015938;28;20032;-82
2022/05/02 04:12:34;;;;;;;11.57;5.18;;;;;;;12.02;57.25;95094.03;5035074;28;20119;-81
2022/05/02 04:15:00;;;;;;;9.35;5.82;;;;;;;12.34;57.81;95157.97;5016469;28;20372;-81
2022/05/02 04:17:25;;;;;;;16.98;5.68;;;;;;;12.32;57.33;95160.13;5016229;28;20561;-81
2022/05/02 04:19:51;;;;;;;13.00;5.78;;;;;;;12.42;57.27;95140.59;5034455;28;20801;-81
2022/05/02 04:22:16;;;;;;;9.50;4.95;;;;;;;12.30;56.45;95097.66;5015623;28;20562;-82
2022/05/02 04:24:41;;;;;;;11.15;5.35;;;;;;;11.77;57.21;95063.22;5017315;28;20052;-82
2022/05/02 04:27:07;;;;;;;19.65;5.85;;;;;;;12.52;57.12;95172.38;5019653;28;20041;-82
2022/05/02 04:29:32;;;;;;;10.77;6.20;;;;;;;12.09;57.39;95099.00;5038465;28;20106;-82
2022/05/02 04:31:58;;;;;;;15.43;6.45;;;;;;;12.81;57.48;95230.03;5020343;28;20569;-81
2022/05/02 04:34:23;;;;;;;11.55;7.13;;;;;;;11.71;57.32;95055.56;5020429;28;20624;-82
2022/05/02 04:36:48;;;;;;;13.68;6.45;;;;;;;11.80;58.34;95110.47;5019122;28;20436;-82
2022/05/02 04:39:14;;;;;;;18.63;6.00;;;;;;;12.59;57.25;95180.78;5019749;28;20037;-81
2022/05/02 04:41:39;;;;;;;16.88;5.45;;;;;;;12.37;57.27;95160.06;5019850;28;20452;-82
2022/05/02 04:44:05;;;;;;;12.15;4.80;;;;;;;12.39;57.46;95146.47;5038353;28;20036;-82
2022/05/02 04:46:30;;;;;;;10.07;5.40;;;;;;;12.54;57.69;95185.38;5037850;28;20044;-81
2022/05/02 04:48:56;;;;;;;17.42;5.60;;;;;;;12.18;57.07;95110.59;5019176;28;20086;-82
2022/05/02 04:51:21;;;;;;;7.75;4.50;;;;;;;12.54;57.28;95180.06;5037386;28;20503;-81
2022/05/02 04:53:47;;;;;;;13.15;5.90;;;;;;;11.91;56.96;95072.06;5037652;28;20033;-82
2022/05/02 04:56:12;;;;;;;12.75;4.97;;;;;;;12.97;57.04;95234.09;5037481;28;20500;-82
2022/05/02 04:58:37;;;;;;;11.50;5.53;;;;;;;12.32;57.03;95130.88;5037090;28;20040;-82
2022/05/02 05:01:06;;;;;;;12.77;4.80;;;;;;;12.27;56.86;95127.50;5036945;28;20045;-82
2022/05/02 05:03:33;;;;;;;14.70;5.47;;;;;;;12.42;57.14;95147.78;5037125;28;20122;-82
2022/05/02 05:05:58;;;;;;;9.40;4.47;;;;;;;12.41;56.79;95131.03;5037017;28;20128;-82
2022/05/02 05:08:24;;;;;;;9.02;4.88;;;;;;;12.82;56.29;95191.66;5037049;28;20128;-82
2022/05/02 05:11:17;;;;;;;13.05;5.82;;;;;;;12.82;57.78;95220.94;5018812;28;20044;-82
2022/05/02 05:17:19;;;;;;;13.60;5.05;;;;;;;13.00;57.38;95215.66;5037887;28;20114;-81
2022/05/02 05:19:55;;;;;;;9.77;5.10;;;;;;;13.10;57.06;95217.41;5018941;28;20025;-81
2022/05/02 05:22:28;;;;;;;12.02;5.45;;;;;;;12.58;56.40;95117.25;5018337;28;20474;-82
2022/05/02 05:24:54;;;;;;;10.38;5.30;;;;;;;13.33;56.40;95216.56;5036982;28;20057;-82
2022/05/02 05:27:43;;;;;;;8.88;4.88;;;;;;;12.74;56.38;95126.59;5036434;28;20048;-81
2022/05/02 05:30:10;;;;;;;11.18;5.40;;;;;;;11.90;56.62;94997.97;5036751;28;20092;-81
2022/05/02 05:32:57;;;;;;;15.75;6.30;;;;;;;13.43;56.13;95208.38;5036822;28;20041;-81
2022/05/02 05:35:24;;;;;;;8.60;6.10;;;;;;;13.14;56.33;95200.56;5036573;28;20044;-82
2022/05/02 05:37:55;;;;;;;12.40;5.53;;;;;;;13.13;56.35;95222.94;5018311;28;20143;-82
2022/05/02 05:40:28;;;;;;;;;;;;;;;13.22;56.52;95216.97;5034353;28;20044;-82
2022/05/02 05:43:21;;;;;;;11.15;5.50;;;;;;;12.89;56.53;95154.88;5017204;28;20468;-81
2022/05/02 05:45:56;;;;;;;24.70;6.03;;;;;;;13.30;56.66;95213.66;5037088;28;20033;-82
2022/05/02 05:48:37;;;;;;;11.48;5.28;;;;;;;13.40;56.52;95209.00;5036200;28;20104;-82
2022/05/02 05:51:30;;;;;;;17.80;5.78;;;;;;;13.45;55.97;95210.78;5017932;28;20075;-81
2022/05/02 05:54:09;;;;;;;17.17;5.20;;;;;;;13.45;55.58;95195.56;5018002;28;20033;-81
2022/05/02 05:56:43;;;;;;;11.35;5.47;;;;;;;13.56;55.65;95211.41;5036314;28;20041;-81
2022/05/02 05:59:14;;;;;;;15.68;5.10;;;;;;;13.57;55.51;95207.66;5036377;28;20055;-82
2022/05/02 06:01:57;;;;;;;14.30;6.20;;;;;;;13.52;55.38;95205.84;5036775;28;20530;-82
2022/05/02 06:04:26;;;;;;;18.17;5.88;;;;;;;13.24;55.28;95159.69;5018125;28;20843;-81
2022/05/02 06:06:53;;;;;;;8.77;4.82;;;;;;;12.92;55.31;95128.47;5036322;28;20102;-82
2022/05/02 06:09:20;;;;;;;10.75;5.68;;;;;;;12.94;55.69;95120.97;5018231;28;20049;-82
2022/05/02 06:11:46;;;;;;;9.15;4.80;;;;;;;12.27;54.95;94986.56;5036319;28;20491;-82
2022/05/02 06:14:13;;;;;;;12.95;5.10;;;;;;;13.35;56.17;95189.63;5018611;28;20482;-82
2022/05/02 06:19:27;;;;;;;14.45;5.90;;;;;;;12.96;55.77;95131.34;5036678;28;20067;-81
2022/05/02 06:21:54;;;;;;;13.38;5.75;;;;;;;12.74;56.39;95114.06;5036114;28;20426;-81
2022/05/02 06:24:19;;;;;;;8.52;5.10;;;;;;;12.83;56.13;95116.88;5035736;28;20052;-82
2022/05/02 06:26:46;;;;;;;9.80;6.05;;;;;;;13.30;55.84;95173.72;5017514;28;20090;-81
2022/05/02 06:29:13;;;;;;;9.98;6.40;;;;;;;13.39;56.28;95194.09;5017848;28;20036;-82
2022/05/02 06:31:45;;;;;;;12.13;5.82;;;;;;;12.93;55.79;95114.06;5036280;28;20087;-82
2022/05/02 06:34:12;;;;;;;27.85;7.22;;;;;;;12.60;55.60;95037.94;5018315;28;20499;-82
2022/05/02 06:37:05;;;;;;;20.58;7.10;;;;;;;13.63;55.85;95169.97;5035528;28;20116;-82
2022/05/02 06:39:46;;;;;;;21.77;7.15;;;;;;;13.52;56.41;95169.34;5017723;28;20052;-82
2022/05/02 06:42:21;;;;;;;15.73;6.90;;;;;;;12.99;55.87;95101.47;5017523;28;20041;-82
2022/05/02 06:44:49;;;;;;;22.15;7.53;;;;;;;13.70;55.90;95173.06;5036044;28;20736;-81
2022/05/02 06:47:15;;;;;;;13.10;7.57;;;;;;;13.73;55.84;95172.47;5017413;28;20041;-82
2022/05/02 06:49:43;;;;;;;13.85;7.78;;;;;;;13.61;56.50;95176.69;5035628;28;20044;-82
2022/05/02 06:52:10;;;;;;;15.85;7.75;;;;;;;12.76;55.87;95002.81;5017149;28;20327;-82
2022/05/02 06:54:53;;;;;;;17.55;6.47;;;;;;;13.98;55.30;95162.44;5036125;28;20041;-82
2022/05/02 06:57:37;;;;;;;12.90;7.18;;;;;;;14.01;54.79;95151.97;5017664;28;20036;-82
2022/05/02 07:00:08;;;;;;;11.63;5.75;;;;;;;13.78;55.42;95116.41;5017210;28;20194;-82
2022/05/02 07:03:05;;;;;;;13.03;5.63;;;;;;;14.13;54.84;95154.16;5035150;28;20245;-81
2022/05/02 07:05:46;;;;;;;18.35;6.10;;;;;;;13.73;54.88;95073.84;5017015;28;20378;-82
2022/05/02 07:08:18;;;;;;;11.02;6.10;;;;;;;13.42;54.47;95035.56;5035458;28;20029;-82
2022/05/02 07:10:45;;;;;;;15.77;5.88;;;;;;;13.94;54.41;95065.47;5035863;28;20447;-82
2022/05/02 07:13:32;;;;;;;12.38;5.65;;;;;;;14.44;54.05;95143.69;5035245;28;20415;-82
2022/05/02 07:16:19;;;;;;;7.30;4.68;;;;;;;14.25;53.75;95122.47;5035029;28;20831;-82
2022/05/02 07:19:09;;;;;;;12.63;5.10;;;;;;;14.27;54.08;95141.59;5016908;28;20083;-82
2022/05/02 07:21:57;;;;;;;15.32;5.65;;;;;;;14.20;53.94;95149.22;5016409;28;20036;-82
2022/05/02 07:24:34;;;;;;;8.88;5.50;;;;;;;14.39;53.61;95143.81;5016007;28;20160;-82
2022/05/02 07:27:24;;;;;;;13.10;6.53;;;;;;;14.40;53.14;95140.84;5016404;28;20566;-81
2022/05/02 07:29:50;;;;;;;9.90;5.70;;;;;;;14.49;53.03;95149.75;5002927;28;20106;-82
2022/05/02 07:32:21;;;;;;;9.48;5.40;;;;;;;13.72;53.05;95037.66;5035024;28;20041;-81
2022/05/02 07:34:49;;;;;;;12.70;5.40;;;;;;;14.59;53.46;95138.84;5035330;28;20045;-81
2022/05/02 07:37:19;;;;;;;8.30;5.85;;;;;;;13.98;53.55;95047.78;5017440;28;20475;-81
2022/05/02 07:39:46;;;;;;;9.90;5.45;;;;;;;13.76;52.00;95019.97;5034614;28;20040;-81
2022/05/02 07:42:13;;;;;;;10.60;5.53;;;;;;;14.09;52.07;95046.50;5034346;28;20160;-81
2022/05/02 07:44:40;;;;;;;12.63;5.47;;;;;;;13.86;52.17;95029.63;5015820;28;20203;-82
2022/05/02 07:47:07;;;;;;;13.60;5.65;;;;;;;14.84;51.81;95129.50;5016351;28;20032;-82
2022/05/02 07:49:34;;;;;;;9.23;5.40;;;;;;;14.83;51.50;95138.59;5017216;28;20037;-82
2022/05/02 07:52:03;;;;;;;15.38;6.53;;;;;;;15.01;50.94;95143.00;5034775;28;20084;-82
2022/05/02 07:54:31;;;;;;;8.80;6.55;;;;;;;13.95;50.29;94992.41;5034306;28;20041;-81
2022/05/02 07:56:59;;;;;;;15.55;7.85;;;;;;;15.09;51.01;95152.19;5034039;28;20341;-81
2022/05/02 07:59:30;;;;;;;17.02;8.80;;;;;;;15.30;50.75;95152.50;5033444;28;20041;-82
2022/05/02 08:01:56;;;;;;;;;;;;;;;14.99;49.63;95152.41;5016733;28;20037;-82
2022/05/02 08:04:22;;;;;;;13.82;8.38;;;;;;;14.80;49.62;95109.81;5015936;28;20003;-82
2022/05/02 08:06:56;;;;;;;12.95;8.30;;;;;;;14.35;50.47;95022.72;5016461;28;20047;-82
2022/05/02 08:09:59;;;;;;;15.50;9.10;;;;;;;15.23;50.47;95162.81;5034520;28;20869;-82
2022/05/02 08:12:30;;;;;;;15.13;9.25;;;;;;;14.88;50.15;95103.75;5034462;28;20064;-82
2022/05/02 08:15:23;;;;;;;20.55;9.15;;;;;;;14.96;49.58;95136.97;5033901;28;20489;-82
2022/05/02 08:18:37;;;;;;;20.30;9.65;;;;;;;15.45;48.65;95162.81;5030687;28;20041;-82
2022/05/02 08:21:07;;;;;;;15.88;9.65;;;;;;;15.29;50.16;95164.28;5034638;28;20082;-81
2022/05/02 08:29:33;;;;;;;13.23;9.15;;;;;;;15.62;48.58;95157.63;5034496;28;20055;-81
2022/05/02 08:32:13;;;;;;;10.73;8.40;;;;;;;15.70;49.22;95148.09;5016253;28;20037;-82
2022/05/02 08:34:38;;;;;;;15.20;8.30;;;;;;;15.79;47.03;95148.94;5033898;28;20605;-82
2022/05/02 08:37:41;;;;;;;13.90;8.35;;;;;;;15.32;46.29;95070.16;5033890;28;20037;-82
2022/05/02 08:40:24;;;;;;;16.80;9.43;;;;;;;15.50;47.55;95095.09;5034582;28;20060;-82
2022/05/02 08:43:05;;;;;;;11.98;7.68;;;;;;;15.93;44.94;95143.47;5016117;28;20033;-82
2022/05/02 08:46:08;;;;;;;20.37;9.03;;;;;;;15.99;45.17;95137.69;5015775;28;20588;-82
2022/05/02 08:52:24;;;;;;;19.75;7.97;;;;;;;16.04;44.37;95131.41;5034638;28;20056;-82
2022/05/02 08:55:20;;;;;;;11.77;7.53;;;;;;;16.04;44.60;95126.84;5034240;28;20480;-82
2022/05/02 08:58:01;;;;;;;12.70;7.90;;;;;;;16.23;45.29;95118.59;5015616;28;20494;-82
2022/05/02 09:00:48;;;;;;;12.48;6.93;;;;;;;16.28;44.36;95114.97;5015401;28;20043;-82
2022/05/02 09:03:32;;;;;;;9.90;6.07;;;;;;;16.29;42.76;95103.97;5015756;28;20044;-82
2022/05/02 09:06:19;;;;;;;14.88;6.80;;;;;;;16.45;43.42;95098.97;5016051;28;20029;-82
2022/05/02 09:09:19;;;;;;;8.20;4.82;;;;;;;16.36;41.39;95101.63;5015505;28;20033;-82
2022/05/02 09:12:12;;;;;;;7.90;5.25;;;;;;;15.74;42.71;94993.97;5018872;28;20067;-82
2022/05/02 09:14:53;;;;;;;12.90;5.40;;;;;;;16.57;42.36;95091.09;5037935;28;20033;-82
2022/05/02 09:17:56;;;;;;;12.30;6.38;;;;;;;16.66;42.53;95102.66;5037524;28;20037;-82
2022/05/02 09:20:24;;;;;;;9.45;5.82;;;;;;;16.53;41.03;95088.28;5037610;28;20037;-82
2022/05/02 09:23:11;;;;;;;6.28;5.57;;;;;;;16.67;43.53;95090.03;5036985;28;20707;-81
2022/05/02 09:25:52;;;;;;;10.70;5.28;;;;;;;16.70;44.18;95081.41;5038751;28;20041;-81
2022/05/02 09:28:22;;;;;;;8.90;5.70;;;;;;;16.36;41.29;94997.25;5036878;28;20246;-82
2022/05/02 09:30:53;;;;;;;10.82;6.10;;;;;;;17.11;42.81;95076.34;5019049;28;20044;-81
2022/05/02 09:33:28;;;;;;;;;;;;;;;17.19;40.91;95082.78;5038280;28;20116;-82
2022/05/02 09:36:04;;;;;;;10.95;5.13;;;;;;;17.02;40.88;95005.91;5037966;28;19960;-81
2022/05/02 09:38:47;;;;;;;9.40;4.57;;;;;;;17.05;40.45;95012.53;5036784;28;20669;-81
2022/05/02 09:41:51;;;;;;;10.57;5.30;;;;;;;17.51;41.93;95084.97;5019218;28;20105;-82
2022/05/02 09:50:37;;;;;;;10.60;4.07;;;;;;;18.20;37.23;95043.69;5036978;28;20429;-81
2022/05/02 09:53:22;;;;;;;9.02;3.30;;;;;;;18.41;37.69;95069.47;5037246;28;20028;-82
2022/05/02 09:59:07;;;;;;;11.43;3.67;;;;;;;18.08;36.99;95025.59;5036664;28;20080;-81
2022/05/02 10:01:34;;;;;;;6.65;3.63;;;;;;;17.42;36.83;94966.22;5006969;28;20196;-82
2022/05/02 10:04:18;;;;;;;5.38;3.55;;;;;;;18.29;35.41;95057.84;5037362;28;20552;-82
2022/05/02 10:06:54;;;;;;;8.60;3.63;;;;;;;18.29;35.76;95055.97;5018392;28;20041;-81
2022/05/02 10:09:54;;;;;;;10.93;4.18;;;;;;;18.41;36.30;95053.34;5018627;28;20527;-81
2022/05/02 10:12:31;;;;;;;13.27;4.43;;;;;;;18.12;36.23;95048.00;5036648;28;20052;-81
2022/05/02 10:15:20;;;;;;;9.18;3.45;;;;;;;18.17;34.90;95050.50;5036799;28;20037;-81
2022/05/02 10:18:15;;;;;;;5.68;4.03;;;;;;;18.07;36.14;95056.25;4972794;28;20048;-81
2022/05/02 10:21:09;;;;;;;5.45;4.32;;;;;;;17.92;35.54;95029.97;5015060;28;20048;-81
2022/05/02 10:23:46;;;;;;;8.57;4.50;;;;;;;18.05;36.30;95039.66;5026193;28;20045;-81
2022/05/02 10:26:24;;;;;;;13.40;4.57;;;;;;;17.43;37.30;94938.31;5036567;28;20482;-82
2022/05/02 10:29:26;;;;;;;8.25;3.90;;;;;;;17.70;37.45;95013.00;5036268;28;20068;-81
2022/05/02 10:32:02;;;;;;;4.47;4.03;;;;;;;17.49;36.99;94985.28;5036170;28;20402;-81
2022/05/02 10:34:31;;;;;;;4.97;3.72;;;;;;;17.89;36.37;95011.81;5018409;28;20415;-82
2022/05/02 10:37:02;;;;;;;8.75;3.97;;;;;;;17.89;35.01;94982.31;5036350;28;20094;-82
2022/05/02 10:39:47;;;;;;;7.88;3.28;;;;;;;18.37;35.49;95001.44;5017746;28;20049;-82
2022/05/02 10:42:16;;;;;;;7.82;3.65;;;;;;;18.50;35.16;94980.81;5035751;28;20569;-81
2022/05/02 10:44:48;;;;;;;5.68;3.08;;;;;;;19.08;35.42;95047.03;5017303;28;20040;-81
2022/05/02 10:47:19;;;;;;;8.93;3.80;;;;;;;18.69;35.55;94980.38;5017483;28;20068;-81
2022/05/02 10:50:22;;;;;;;5.93;3.47;;;;;;;19.14;34.16;95028.81;5017180;28;20037;-82
2022/05/02 10:52:51;;;;;;;7.10;3.60;;;;;;;19.03;35.10;95031.13;4918352;29;20046;-81
2022/05/02 10:55:30;;;;;;;9.18;2.75;;;;;;;18.94;34.17;94970.50;5000131;28;20615;-82
2022/05/02 10:58:01;;;;;;;7.05;3.83;;;;;;;19.19;34.42;94964.06;5017542;28;20763;-81
2022/05/02 11:00:28;;;;;;;;;;;;;;;19.82;33.70;95030.00;5036949;28;20048;-81
2022/05/02 11:03:18;;;;;;;7.57;3.28;;;;;;;19.75;33.34;95026.28;5016923;28;19920;-81
2022/05/02 11:06:03;;;;;;;5.38;2.80;;;;;;;19.76;32.32;95017.88;5017486;28;20418;-82
2022/05/02 11:08:35;;;;;;;7.65;3.25;;;;;;;19.83;32.01;95025.41;5035571;28;20530;-81
2022/05/02 11:11:06;;;;;;;11.48;3.40;;;;;;;19.79;33.46;95025.28;5034707;28;20036;-82
2022/05/02 11:13:50;;;;;;;4.40;2.90;;;;;;;19.41;33.49;94936.00;5034430;28;20435;-82
2022/05/02 11:16:26;;;;;;;6.82;3.55;;;;;;;20.17;34.10;95019.56;5035276;28;20127;-81
2022/05/02 11:22:04;;;;;;;9.48;3.55;;;;;;;20.25;35.09;95009.81;5034996;28;20497;-82
2022/05/02 11:24:47;;;;;;;7.78;3.17;;;;;;;19.60;35.54;94942.44;5015994;28;20103;-81
2022/05/02 11:27:13;;;;;;;5.82;3.25;;;;;;;20.33;34.47;95031.25;5035193;28;20040;-81
2022/05/02 11:29:56;;;;;;;6.63;3.05;;;;;;;20.00;33.79;95012.50;5017017;28;20056;-82
2022/05/02 11:32:37;;;;;;;5.43;3.00;;;;;;;19.20;35.01;94910.00;5035041;28;20037;-82
2022/05/02 11:35:03;;;;;;;8.82;3.15;;;;;;;20.03;34.87;95019.91;5034648;28;20396;-81
2022/05/02 11:37:35;;;;;;;6.25;3.50;;;;;;;19.60;36.29;95019.66;5035124;28;20348;-81
2022/05/02 11:40:11;;;;;;;8.23;3.63;;;;;;;19.08;36.25;94960.22;5016515;28;20044;-82
2022/05/02 11:42:43;;;;;;;9.35;3.55;;;;;;;19.33;34.91;94979.91;5035387;28;20072;-81
2022/05/02 11:45:11;;;;;;;15.77;3.00;;;;;;;19.18;35.57;94978.63;5035740;28;20542;-81
2022/05/02 11:47:54;;;;;;;6.95;2.75;;;;;;;19.36;36.31;95027.66;5018019;28;20041;-81
2022/05/02 11:50:24;;;;;;;5.95;3.13;;;;;;;19.17;36.02;95026.22;5016549;28;20079;-81
2022/05/02 11:52:55;;;;;;;4.53;3.13;;;;;;;19.13;36.92;95017.28;5034593;28;20415;-81
2022/05/02 11:55:34;;;;;;;15.18;3.58;;;;;;;18.85;36.60;94975.94;5034958;28;20150;-81
2022/05/02 11:58:07;;;;;;;5.07;3.75;;;;;;;18.40;36.15;94928.28;5035248;28;20037;-81
2022/05/02 12:00:35;;;;;;;8.90;3.47;;;;;;;19.05;37.30;95014.66;5034400;28;20036;-81
2022/05/02 12:03:14;;;;;;;12.38;3.15;;;;;;;19.09;35.79;95010.97;5016268;28;20033;-81
2022/05/02 12:05:41;;;;;;;6.03;3.90;;;;;;;18.58;36.78;94965.75;5016771;28;20049;-82
2022/05/02 12:08:09;;;;;;;4.97;2.80;;;;;;;18.33;36.73;94991.66;5034825;28;20041;-81
2022/05/02 12:10:37;;;;;;;6.05;2.90;;;;;;;18.74;36.51;95007.03;5035322;28;20051;-81
2022/05/02 12:13:04;;;;;;;11.50;3.67;;;;;;;18.49;37.28;95014.13;5034207;28;20478;-81
2022/05/02 12:15:30;;;;;;;7.03;3.17;;;;;;;18.33;37.74;94986.28;5034496;28;20093;-81
2022/05/02 12:18:04;;;;;;;10.90;3.78;;;;;;;17.55;38.12;94914.28;5034727;28;20116;-81
2022/05/02 12:20:31;;;;;;;8.18;3.80;;;;;;;18.24;37.14;95004.34;5034492;28;20041;-81
2022/05/02 12:23:02;;;;;;;4.57;3.42;;;;;;;17.30;38.05;94918.66;5016157;28;20294;-81
2022/05/02 12:25:28;;;;;;;7.82;4.00;;;;;;;16.81;37.92;94836.25;5034607;28;20569;-81
2022/05/02 12:27:57;;;;;;;9.75;3.97;;;;;;;17.16;37.51;94880.59;5015904;28;20049;-82